Terminal Aerodrome Forecast
Issued by NWS

Home | Current Version | Previous Version | Text Only | Print | Product List | Glossary On
Versions: 1 2 3 4 5 6 7 8 9 10 11 12 13 14 15 16 17
000
FTAK31 PANC 250304 AAA
TAFADU
TAF AMD
PADU 250304Z 2503/2524 27007KT P6SM -SHRA SCT015 OVC025
      TEMPO 2503/2506 SCT025 BKN060
     FM250600 31008KT P6SM VCSH OVC015=

USA.gov is the U.S. government's official web portal to all federal, state and local government web resources and services.